METAR (acronimo di METeorological Air Report) è un messaggio meteo emesso nella maggior parte dei casi in ambito aeroportuale

LIPF - Ferrara, It
Distanza dalla Stazione: 8 km
Ultimo Aggiornamento: Martedì 04 Agosto 2020 19:55 CEST
Dati non Recenti
Sereno
Sereno
 Wind from varies
Vento: variabile 0 km/h
Temperatura: 22°C
Punto di Rugiada: 16°C
Umidità: 69%
Barometro: 1007 hPa
Condizioni: Sereno
Visibilità: superiore a 10 km
2020/08/04 17:55 LIPF 041755Z /////KT CAVOK 22/16 Q1007
LIPE - Bologna Borgo Panigale, It
Distanza dalla Stazione: 46 km
Ultimo Aggiornamento: Martedì 04 Agosto 2020 23:50 CEST
Pioggia Leggera, Prevalentemente Nuvoloso
Pioggia Leggera, Prevalentemente Nuvoloso
 Wind from Nord-Ovest
Vento: Nord-Ovest 7 km/h
Temperatura: 18°C
Punto di Rugiada: 16°C
Umidità: 88%
Barometro: 1010 hPa
Condizioni: Pioggia Leggera
Nuvole: Prevalentemente Nuvoloso
Visibilità: 10 km
Nuvole nel Dettaglio: Prevalentemente Nuvoloso 2134 m
2020/08/04 21:50 LIPE 042150Z 31004KT 290V350 9999 -RA BKN070 18/16 Q1010
LIMF - Torino Caselle, It
Distanza dalla Stazione: 320 km
Ultimo Aggiornamento: Martedì 04 Agosto 2020 23:50 CEST
Sereno
Sereno
 Wind from Nord-Nord-Ovest
Vento: Nord-Nord-Ovest 7 km/h
Temperatura: 20°C
Punto di Rugiada: 13°C
Umidità: 64%
Barometro: 1011 hPa
Condizioni: Sereno
Visibilità: superiore a 10 km
2020/08/04 21:50 LIMF 042150Z 33004KT CAVOK 20/13 Q1011
 
LIML - Milano Malpensa, It
Distanza dalla Stazione: 249 km
Ultimo Aggiornamento: Martedì 04 Agosto 2020 23:50 CEST
Sereno
Sereno
 Wind from Nord-Nord-Ovest
Vento: Nord-Nord-Ovest 6 km/h
Temperatura: 20°C
Punto di Rugiada: 7°C
Umidità: 43%
Barometro: 1009 hPa
Nuvole: Sereno
Visibilità: 10 km
2020/08/04 21:50 LIML 042150Z AUTO 33003KT 9999 NCD 20/07 Q1009
LIME - Bergamo Orio al Serio, It
Distanza dalla Stazione: 181 km
Ultimo Aggiornamento: Martedì 04 Agosto 2020 23:50 CEST
Sereno
Sereno
 Wind from Nord
Vento: Nord 7 km/h
Temperatura: 17°C
Punto di Rugiada: 14°C
Umidità: 83%
Barometro: 1010 hPa
Nuvole: Sereno
Visibilità: 10 km
2020/08/04 21:50 LIME 042150Z AUTO 01004KT 9999 NCD 17/14 Q1010
LIPZ - Venezia Tessera, It
Distanza dalla Stazione: 93 km
Ultimo Aggiornamento: Martedì 04 Agosto 2020 23:50 CEST
Parzialmente Nuvoloso
Parzialmente Nuvoloso
 Wind from Nord-Nord-Ovest
Vento: Nord-Nord-Ovest 13 km/h
Temperatura: 18°C
Punto di Rugiada: 17°C
Umidità: 94%
Barometro: 1009 hPa
Nuvole: Parzialmente Nuvoloso
Visibilità: 10 km
Nuvole nel Dettaglio: Parzialmente Nuvoloso 2134 m
2020/08/04 21:50 LIPZ 042150Z 33007KT 9999 SCT070 18/17 Q1009 NOSIG
 
LIVT - Trieste, It
Distanza dalla Stazione: 179 km
Ultimo Aggiornamento: Martedì 04 Agosto 2020 19:55 CEST
Dati non Recenti
Prevalentemente Nuvoloso
Prevalentemente Nuvoloso
 Wind from varies
Vento: variabile 0 km/h
Temperatura: 20°C
Punto di Rugiada: 17°C
Umidità: 83%
Barometro: 1006 hPa
Nuvole: Prevalentemente Nuvoloso
Visibilità: 10 km
Nuvole nel Dettaglio: Prevalentemente Nuvoloso 914 m
2020/08/04 17:55 LIVT 041755Z /////KT 9999 BKN030 20/17 Q1006 RMK OVC SCT060 QUK 0 QUL 0 VIS MAR 20 KM VIS MIN 9999
LIMJ - Genova, It
Distanza dalla Stazione: 229 km
Ultimo Aggiornamento: Martedì 04 Agosto 2020 23:50 CEST
Sereno
Sereno
 Wind from Est
Vento: Est 11 km/h
Temperatura: 23°C
Punto di Rugiada: 10°C
Umidità: 44%
Barometro: 1009 hPa
Condizioni: Sereno
Visibilità: superiore a 10 km
2020/08/04 21:50 LIMJ 042150Z 08006KT 050V120 CAVOK 23/10 Q1009
LIRQ - Firenze Amerigo Vespucci, It
Distanza dalla Stazione: 119 km
Ultimo Aggiornamento: Martedì 04 Agosto 2020 23:50 CEST
Parzialmente Nuvoloso
Parzialmente Nuvoloso
 Wind from Nord-Nord-Ovest
Vento: Nord-Nord-Ovest 6 km/h
Temperatura: 21°C
Punto di Rugiada: 13°C
Umidità: 60%
Barometro: 1008 hPa
Nuvole: Parzialmente Nuvoloso
Visibilità: 10 km
Nuvole nel Dettaglio: Parzialmente Nuvoloso 2438 m
2020/08/04 21:50 LIRQ 042150Z 34003KT 260V020 9999 SCT080 21/13 Q1008
 
LIPY - Ancona, It
Distanza dalla Stazione: 189 km
Ultimo Aggiornamento: Martedì 04 Agosto 2020 23:50 CEST
Parzialmente Nuvoloso
Parzialmente Nuvoloso
 Wind from Sud
Vento: Sud 6 km/h
Temperatura: 18°C
Punto di Rugiada: 16°C
Umidità: 88%
Barometro: 1008 hPa
Nuvole: Parzialmente Nuvoloso
Visibilità: 10 km
Nuvole nel Dettaglio: Parzialmente Nuvoloso 945 m
Parzialmente Nuvoloso 1707 m
2020/08/04 21:50 LIPY 042150Z AUTO 19003KT 160V220 9999 SCT031/// SCT056/// 18/16 Q1008
LIBP - Pescara, It
Distanza dalla Stazione: 333 km
Ultimo Aggiornamento: Martedì 04 Agosto 2020 23:50 CEST
Pioggia con temporale, Prevalentemente Nuvoloso
Pioggia con temporale, Prevalentemente Nuvoloso
 Wind from Nord-Nord-Ovest
Vento: Nord-Nord-Ovest 15 km/h
Temperatura: 22°C
Punto di Rugiada: 17°C
Umidità: 73%
Barometro: 1007 hPa
Condizioni: Pioggia con temporale
Nuvole: Prevalentemente Nuvoloso
Visibilità: 10 km
Nuvole nel Dettaglio: Qualche Nuvola 701 m
Parzialmente Nuvoloso 1280 m
Prevalentemente Nuvoloso 2225 m
2020/08/04 21:50 LIBP 042150Z AUTO 34008KT 300V360 9999 TSRA FEW023/// SCT042/// BKN073/// 22/17 Q1007
LIRF - Roma-Fiumicino, It
Distanza dalla Stazione: 334 km
Ultimo Aggiornamento: Martedì 04 Agosto 2020 23:50 CEST
Sereno
Sereno
 Wind from Nord-Ovest
Vento: Nord-Ovest 9 km/h
Temperatura: 22°C
Punto di Rugiada: 12°C
Umidità: 53%
Barometro: 1007 hPa
Condizioni: Sereno
Visibilità: superiore a 10 km
2020/08/04 21:50 LIRF 042150Z 32005KT CAVOK 22/12 Q1007 NOSIG
 
LIRN - Napoli Capodichino, It
Distanza dalla Stazione: 494 km
Ultimo Aggiornamento: Martedì 04 Agosto 2020 23:50 CEST
Sereno
Sereno
 Wind from varies
Vento: variabile 2 km/h
Temperatura: 22°C
Punto di Rugiada: 15°C
Umidità: 65%
Barometro: 1008 hPa
Nuvole: Sereno
Visibilità: 10 km
2020/08/04 21:50 LIRN 042150Z AUTO VRB01KT 9999 NCD 22/15 Q1008
LIBD - Bari Palese, It
Distanza dalla Stazione: 594 km
Ultimo Aggiornamento: Martedì 04 Agosto 2020 23:50 CEST
Sereno
Sereno
 Wind from Ovest
Vento: Ovest 15 km/h
Temperatura: 24°C
Punto di Rugiada: 11°C
Umidità: 44%
Barometro: 1007 hPa
Nuvole: Sereno
Visibilità: 10 km
2020/08/04 21:50 LIBD 042150Z AUTO 27008KT 9999 NCD 24/11 Q1007
LIBG - Taranto Grottaglie, It
Distanza dalla Stazione: 670 km
Ultimo Aggiornamento: Martedì 04 Agosto 2020 19:50 CEST
Dati non Recenti
Qualche Nuvola
Qualche Nuvola
 Wind from Sud
Vento: Sud 9 km/h
Temperatura: 27°C
Heat Index: 31°C
Punto di Rugiada: 24°C
Umidità: 84%
Barometro: 1006 hPa
Nuvole: Qualche Nuvola
Visibilità: 10 km
Nuvole nel Dettaglio: Qualche Nuvola 457 m
2020/08/04 17:50 LIBG 041750Z 19005KT 150V240 9999 FEW015 27/24 Q1006
 
LICR - Reggio Calabria, It
Distanza dalla Stazione: 819 km
Ultimo Aggiornamento: Martedì 04 Agosto 2020 23:50 CEST
Parzialmente Nuvoloso
Parzialmente Nuvoloso
 Wind from Nord-Nord-Est
Vento: Nord-Nord-Est 17 km/h
Temperatura: 27°C
Heat Index: 29°C
Punto di Rugiada: 20°C
Umidità: 66%
Barometro: 1008 hPa
Nuvole: Parzialmente Nuvoloso
Visibilità: 10 km
Nuvole nel Dettaglio: Parzialmente Nuvoloso 914 m
2020/08/04 21:50 LICR 042150Z 02009KT 350V050 9999 SCT030 27/20 Q1008
LICJ - Palermo Punta Raisi, It
Distanza dalla Stazione: 762 km
Ultimo Aggiornamento: Martedì 04 Agosto 2020 23:50 CEST
Qualche Nuvola
Qualche Nuvola
 Wind from Ovest-Sud-Ovest
Vento: Ovest-Sud-Ovest 20 km/h
Temperatura: 26°C
Punto di Rugiada: 19°C
Umidità: 65%
Barometro: 1010 hPa
Nuvole: Qualche Nuvola
Visibilità: 10 km
Nuvole nel Dettaglio: Qualche Nuvola 853 m
2020/08/04 21:50 LICJ 042150Z 24011KT 9999 FEW028 26/19 Q1010
LICC - Catania Fontanarossa, It
Distanza dalla Stazione: 866 km
Ultimo Aggiornamento: Martedì 04 Agosto 2020 23:50 CEST
Qualche Nuvola
Qualche Nuvola
 Wind from Ovest
Vento: Ovest 9 km/h
Temperatura: 27°C
Heat Index: 29°C
Punto di Rugiada: 20°C
Umidità: 66%
Barometro: 1008 hPa
Nuvole: Qualche Nuvola
Visibilità: 10 km
Nuvole nel Dettaglio: Qualche Nuvola 2743 m
2020/08/04 21:50 LICC 042150Z 27005KT 9999 FEW090 27/20 Q1008
 
LIEE - Cagliari Elmas, It
Distanza dalla Stazione: 655 km
Ultimo Aggiornamento: Martedì 04 Agosto 2020 23:50 CEST
Sereno
Sereno
 Wind from Nord-Ovest
Vento: Nord-Ovest 11 km/h
Temperatura: 21°C
Punto di Rugiada: 14°C
Umidità: 64%
Barometro: 1011 hPa
Condizioni: Sereno
Visibilità: superiore a 10 km
2020/08/04 21:50 LIEE 042150Z 32006KT CAVOK 21/14 Q1011
LIEO - Olbia, It
Distanza dalla Stazione: 463 km
Ultimo Aggiornamento: Martedì 04 Agosto 2020 23:50 CEST
Sereno
Sereno
 Wind from Ovest-Sud-Ovest
Vento: Ovest-Sud-Ovest 22 km/h
Temperatura: 23°C
Punto di Rugiada: 12°C
Umidità: 50%
Barometro: 1009 hPa
Nuvole: Sereno
Visibilità: 10 km
2020/08/04 21:50 LIEO 042150Z AUTO 24012KT 9999 NCD 23/12 Q1009
LICG - Pantelleria, It
Distanza dalla Stazione: 893 km
Ultimo Aggiornamento: Martedì 04 Agosto 2020 19:50 CEST
Dati non Recenti
Sereno
Sereno
 Wind from Ovest-Nord-Ovest
Vento: Ovest-Nord-Ovest 22 km/h
Temperatura: 25°C
Punto di Rugiada: 18°C
Umidità: 65%
Barometro: 1011 hPa
Condizioni: Sereno
Visibilità: superiore a 10 km
2020/08/04 17:50 LICG 041750Z 29012KT CAVOK 25/18 Q1011